^^
Meteo Knjazevac Station Historical Data
Daily Summary for April 10, 2021 Units:  English    Metric   Both
Daily Weekly Monthly Yearly Custom
  High: Low: Average:
Temperature: 59.6 °F 52.3 °F 54.9 °F
Dew Point: 59 °F 51.1 °F 53.6 °F
Humidity: 99% 90% 95%
Wind Speed: 3mph 0mph 0.8mph
Wind Gust: 5mph - -
Wind- - West
Pressure: 30.05 in 30.03 in -
Precipitation: 0.00 in    
Historical Graphs
 
 
Tabular Data for April 10, 2021
Time Temperature Dew Point Pressure Wind Wind Speed Wind Gust Humidity Rainfall Rate (Hourly) solar Conditions
00:00 58.8 °F 55.9 °F 30.05 in WSW 1 mph 3 mph 90% 0.00 in 0 W/m2
00:10 58.3 °F 55.4 °F 30.05 in NNW 1 mph 3 mph 90% 0.00 in 0 W/m2
00:20 57.9 °F 55 °F 30.05 in West 1 mph 2 mph 90% 0.00 in 0 W/m2
00:30 57.6 °F 55 °F 30.05 in WSW 1 mph 2 mph 91% 0.00 in 0 W/m2
00:40 57.2 °F 54.6 °F 30.05 in WNW 1 mph 2 mph 91% 0.00 in 0 W/m2
00:50 56.8 °F 54.8 °F 30.05 in NW 1 mph 3 mph 93% 0.00 in 0 W/m2
01:00 56.7 °F 54.7 °F 30.05 in West 1 mph 2 mph 93% 0.00 in 0 W/m2
01:10 56.3 °F 54.3 °F 30.04 in West 2 mph 5 mph 93% 0.00 in 0 W/m2
01:20 55.8 °F 53.8 °F 30.04 in WSW 3 mph 5 mph 93% 0.00 in 0 W/m2
01:30 55.6 °F 53.9 °F 30.04 in WNW 1 mph 5 mph 94% 0.00 in 0 W/m2
01:40 55.5 °F 53.8 °F 30.04 in Calm   2 mph 94% 0.00 in 0 W/m2
01:50 55.4 °F 53.7 °F 30.04 in Calm   2 mph 94% 0.00 in 0 W/m2
02:00 55.4 °F 53.7 °F 30.04 in North 1 mph 2 mph 94% 0.00 in 0 W/m2
02:10 55.4 °F 53.7 °F 30.04 in NNW 1 mph 2 mph 94% 0.00 in 0 W/m2
02:20 55 °F 53.3 °F 30.04 in WSW 1 mph 2 mph 94% 0.00 in 0 W/m2
02:30 54.9 °F 53.2 °F 30.04 in WNW 2 mph 3 mph 94% 0.00 in 0 W/m2
02:40 55 °F 53.6 °F 30.04 in Calm   3 mph 95% 0.00 in 0 W/m2
02:50 54.8 °F 53.1 °F 30.04 in WSW 1 mph 3 mph 94% 0.00 in 0 W/m2
03:00 54.3 °F 52.9 °F 30.04 in WNW 2 mph 4 mph 95% 0.00 in 0 W/m2
03:10 54.3 °F 52.9 °F 30.04 in WNW 1 mph 3 mph 95% 0.00 in 0 W/m2
03:20 54.1 °F 52.7 °F 30.04 in WSW 1 mph 2 mph 95% 0.00 in 0 W/m2
03:30 53.8 °F 52.4 °F 30.04 in Calm   2 mph 95% 0.00 in 0 W/m2
03:40 53.8 °F 52.4 °F 30.03 in WNW 1 mph 2 mph 95% 0.00 in 0 W/m2
03:50 53.6 °F 52.2 °F 30.04 in Calm   1 mph 95% 0.00 in 0 W/m2
04:00 53.4 °F 52 °F 30.04 in West 2 mph 3 mph 95% 0.00 in 0 W/m2
04:10 53.4 °F 52.3 °F 30.03 in NW 1 mph 3 mph 96% 0.00 in 0 W/m2
04:20 53.6 °F 52.5 °F 30.04 in Calm   2 mph 96% 0.00 in 0 W/m2
04:30 53.2 °F 51.8 °F 30.04 in Calm   1 mph 95% 0.00 in 0 W/m2
04:40 52.9 °F 51.5 °F 30.04 in Calm   2 mph 95% 0.00 in 0 W/m2
04:50 52.8 °F 51.4 °F 30.04 in Calm   2 mph 95% 0.00 in 3 W/m2
05:00 52.5 °F 51.1 °F 30.04 in Calm   1 mph 95% 0.00 in 8 W/m2
05:10 52.6 °F 51.5 °F 30.04 in North 1 mph 2 mph 96% 0.00 in 15 W/m2
05:20 52.5 °F 51.4 °F 30.04 in WSW 1 mph 3 mph 96% 0.00 in 23 W/m2
05:30 52.3 °F 51.5 °F 30.04 in WNW 2 mph 4 mph 97% 0.00 in 32 W/m2
05:40 52.5 °F 52 °F 30.04 in WNW 1 mph 5 mph 98% 0.00 in 41 W/m2
05:50 52.6 °F 52.1 °F 30.04 in West 1 mph 5 mph 98% 0.00 in 53 W/m2
06:00 52.5 °F 52 °F 30.04 in West 3 mph 5 mph 98% 0.00 in 57 W/m2
06:10 52.7 °F 52.2 °F 30.04 in West 1 mph 4 mph 98% 0.00 in 119 W/m2
06:20 52.9 °F 52.3 °F 30.04 in Calm   2 mph 98% 0.00 in 144 W/m2
06:30 53.1 °F 52.5 °F 30.04 in Calm   2 mph 98% 0.00 in 171 W/m2
06:40 53.5 °F 53.2 °F 30.04 in Calm   1 mph 99% 0.00 in 204 W/m2
06:50 54.1 °F 53.9 °F 30.04 in West 1 mph 2 mph 99% 0.00 in 231 W/m2
07:00 54.9 °F 54.6 °F 30.04 in Calm   5 mph 99% 0.00 in 264 W/m2
07:10 55.6 °F 55.3 °F 30.03 in Calm   2 mph 99% 0.00 in 298 W/m2
07:20 56.2 °F 55.9 °F 30.04 in Calm   1 mph 99% 0.00 in 331 W/m2
07:30 57 °F 56.7 °F 30.04 in Calm   2 mph 99% 0.00 in 360 W/m2
07:40 57.8 °F 57.5 °F 30.04 in SW 1 mph 3 mph 99% 0.00 in 393 W/m2
07:50 58.7 °F 58.1 °F 30.03 in SW 1 mph 3 mph 98% 0.00 in 426 W/m2
08:00 59.6 °F 59 °F 30.03 in West 1 mph 2 mph 98% 0.00 in 462 W/m2
Knjazevac, Serbia
Compliments of Weather Underground - 2 mb